sensor_id;sensor_type;location;lat;lon;timestamp;P1;durP1;ratioP1;P2;durP2;ratioP2
51459;SDS011;37534;39.772;2.718;2023-12-28T00:00:25;21.25;;;15.18;;
51459;SDS011;37534;39.772;2.718;2023-12-28T00:02:50;21.52;;;16.02;;
51459;SDS011;37534;39.772;2.718;2023-12-28T00:05:16;20.48;;;16.30;;
51459;SDS011;37534;39.772;2.718;2023-12-28T00:07:41;21.75;;;16.05;;
51459;SDS011;37534;39.772;2.718;2023-12-28T00:10:07;14.57;;;11.57;;
51459;SDS011;37534;39.772;2.718;2023-12-28T00:12:33;21.45;;;15.10;;
51459;SDS011;37534;39.772;2.718;2023-12-28T00:14:58;25.15;;;17.33;;
51459;SDS011;37534;39.772;2.718;2023-12-28T00:17:24;21.13;;;15.50;;
51459;SDS011;37534;39.772;2.718;2023-12-28T00:19:49;25.15;;;17.27;;
51459;SDS011;37534;39.772;2.718;2023-12-28T00:22:16;21.77;;;17.85;;
51459;SDS011;37534;39.772;2.718;2023-12-28T00:24:41;35.55;;;22.30;;
51459;SDS011;37534;39.772;2.718;2023-12-28T00:27:06;24.98;;;19.98;;
51459;SDS011;37534;39.772;2.718;2023-12-28T00:29:32;31.92;;;21.05;;
51459;SDS011;37534;39.772;2.718;2023-12-28T00:31:58;21.77;;;18.55;;
51459;SDS011;37534;39.772;2.718;2023-12-28T00:34:24;25.42;;;19.25;;
51459;SDS011;37534;39.772;2.718;2023-12-28T00:36:50;24.73;;;16.90;;
51459;SDS011;37534;39.772;2.718;2023-12-28T00:39:15;19.83;;;15.68;;
51459;SDS011;37534;39.772;2.718;2023-12-28T00:41:41;20.35;;;17.10;;
51459;SDS011;37534;39.772;2.718;2023-12-28T00:44:06;22.45;;;17.02;;
51459;SDS011;37534;39.772;2.718;2023-12-28T00:46:34;28.08;;;17.50;;
51459;SDS011;37534;39.772;2.718;2023-12-28T00:49:00;19.10;;;15.65;;
51459;SDS011;37534;39.772;2.718;2023-12-28T00:51:26;21.48;;;15.50;;
51459;SDS011;37534;39.772;2.718;2023-12-28T00:53:51;21.83;;;16.52;;
51459;SDS011;37534;39.772;2.718;2023-12-28T00:56:17;19.25;;;15.70;;
51459;SDS011;37534;39.772;2.718;2023-12-28T00:58:43;13.93;;;12.50;;
51459;SDS011;37534;39.772;2.718;2023-12-28T01:01:09;13.15;;;11.57;;
51459;SDS011;37534;39.772;2.718;2023-12-28T01:03:35;33.45;;;24.23;;
51459;SDS011;37534;39.772;2.718;2023-12-28T01:06:00;36.55;;;25.55;;
51459;SDS011;37534;39.772;2.718;2023-12-28T01:08:26;31.88;;;23.08;;
51459;SDS011;37534;39.772;2.718;2023-12-28T01:10:51;28.48;;;23.40;;
51459;SDS011;37534;39.772;2.718;2023-12-28T01:13:17;27.88;;;20.30;;
51459;SDS011;37534;39.772;2.718;2023-12-28T01:15:42;31.55;;;19.25;;
51459;SDS011;37534;39.772;2.718;2023-12-28T01:18:08;19.98;;;15.65;;
51459;SDS011;37534;39.772;2.718;2023-12-28T01:20:34;21.55;;;15.40;;
51459;SDS011;37534;39.772;2.718;2023-12-28T01:23:00;17.20;;;12.23;;
51459;SDS011;37534;39.772;2.718;2023-12-28T01:25:26;15.77;;;10.05;;
51459;SDS011;37534;39.772;2.718;2023-12-28T01:27:51;4.70;;;4.30;;
51459;SDS011;37534;39.772;2.718;2023-12-28T01:30:17;7.28;;;6.57;;
51459;SDS011;37534;39.772;2.718;2023-12-28T01:32:42;10.02;;;8.57;;
51459;SDS011;37534;39.772;2.718;2023-12-28T01:35:08;8.98;;;8.15;;
51459;SDS011;37534;39.772;2.718;2023-12-28T01:37:33;12.45;;;8.15;;
51459;SDS011;37534;39.772;2.718;2023-12-28T01:39:59;22.00;;;14.07;;
51459;SDS011;37534;39.772;2.718;2023-12-28T01:42:25;21.95;;;16.52;;
51459;SDS011;37534;39.772;2.718;2023-12-28T01:44:51;24.77;;;16.95;;
51459;SDS011;37534;39.772;2.718;2023-12-28T01:47:17;14.32;;;12.20;;
51459;SDS011;37534;39.772;2.718;2023-12-28T01:49:43;19.92;;;12.88;;
51459;SDS011;37534;39.772;2.718;2023-12-28T01:52:09;15.35;;;11.75;;
51459;SDS011;37534;39.772;2.718;2023-12-28T01:54:35;10.48;;;8.68;;
51459;SDS011;37534;39.772;2.718;2023-12-28T01:57:02;10.40;;;8.80;;
51459;SDS011;37534;39.772;2.718;2023-12-28T01:59:29;8.85;;;7.55;;
51459;SDS011;37534;39.772;2.718;2023-12-28T02:01:56;9.50;;;8.20;;
51459;SDS011;37534;39.772;2.718;2023-12-28T02:04:21;9.45;;;8.55;;
51459;SDS011;37534;39.772;2.718;2023-12-28T02:06:54;9.20;;;8.30;;
51459;SDS011;37534;39.772;2.718;2023-12-28T02:09:22;9.38;;;8.48;;
51459;SDS011;37534;39.772;2.718;2023-12-28T02:11:47;10.05;;;8.13;;
51459;SDS011;37534;39.772;2.718;2023-12-28T02:14:13;9.38;;;8.43;;
51459;SDS011;37534;39.772;2.718;2023-12-28T02:16:46;8.18;;;7.38;;
51459;SDS011;37534;39.772;2.718;2023-12-28T02:19:57;8.13;;;7.18;;
51459;SDS011;37534;39.772;2.718;2023-12-28T02:22:17;7.38;;;6.45;;
51459;SDS011;37534;39.772;2.718;2023-12-28T02:24:58;8.43;;;6.43;;
51459;SDS011;37534;39.772;2.718;2023-12-28T02:27:29;6.53;;;5.93;;
51459;SDS011;37534;39.772;2.718;2023-12-28T02:29:55;8.75;;;6.65;;
51459;SDS011;37534;39.772;2.718;2023-12-28T02:32:28;10.05;;;6.95;;
51459;SDS011;37534;39.772;2.718;2023-12-28T02:35:13;9.10;;;8.20;;
51459;SDS011;37534;39.772;2.718;2023-12-28T02:37:43;9.77;;;7.28;;
51459;SDS011;37534;39.772;2.718;2023-12-28T02:40:13;7.43;;;6.72;;
51459;SDS011;37534;39.772;2.718;2023-12-28T02:42:41;7.00;;;6.40;;
51459;SDS011;37534;39.772;2.718;2023-12-28T02:45:06;6.53;;;5.97;;
51459;SDS011;37534;39.772;2.718;2023-12-28T02:47:32;5.88;;;5.38;;
51459;SDS011;37534;39.772;2.718;2023-12-28T02:49:58;8.43;;;7.65;;
51459;SDS011;37534;39.772;2.718;2023-12-28T02:52:24;9.15;;;8.20;;
51459;SDS011;37534;39.772;2.718;2023-12-28T02:54:50;10.73;;;6.93;;
51459;SDS011;37534;39.772;2.718;2023-12-28T02:57:15;6.35;;;5.13;;
51459;SDS011;37534;39.772;2.718;2023-12-28T02:59:46;8.15;;;5.55;;
51459;SDS011;37534;39.772;2.718;2023-12-28T03:02:12;11.32;;;7.00;;
51459;SDS011;37534;39.772;2.718;2023-12-28T03:04:38;7.50;;;6.78;;
51459;SDS011;37534;39.772;2.718;2023-12-28T03:07:04;6.95;;;6.18;;
51459;SDS011;37534;39.772;2.718;2023-12-28T03:09:30;16.40;;;7.53;;
51459;SDS011;37534;39.772;2.718;2023-12-28T03:11:55;6.93;;;6.07;;
51459;SDS011;37534;39.772;2.718;2023-12-28T03:14:21;7.10;;;6.38;;
51459;SDS011;37534;39.772;2.718;2023-12-28T03:16:47;6.75;;;5.93;;
51459;SDS011;37534;39.772;2.718;2023-12-28T03:19:12;9.13;;;6.82;;
51459;SDS011;37534;39.772;2.718;2023-12-28T03:21:38;5.75;;;5.25;;
51459;SDS011;37534;39.772;2.718;2023-12-28T03:24:05;11.18;;;6.97;;
51459;SDS011;37534;39.772;2.718;2023-12-28T03:26:31;7.40;;;6.18;;
51459;SDS011;37534;39.772;2.718;2023-12-28T03:28:56;7.43;;;6.65;;
51459;SDS011;37534;39.772;2.718;2023-12-28T03:31:22;7.78;;;6.57;;
51459;SDS011;37534;39.772;2.718;2023-12-28T03:33:48;5.55;;;5.15;;
51459;SDS011;37534;39.772;2.718;2023-12-28T03:36:19;8.27;;;7.28;;
51459;SDS011;37534;39.772;2.718;2023-12-28T03:38:46;8.38;;;6.20;;
51459;SDS011;37534;39.772;2.718;2023-12-28T03:41:18;9.80;;;6.75;;
51459;SDS011;37534;39.772;2.718;2023-12-28T03:43:44;7.03;;;6.43;;
51459;SDS011;37534;39.772;2.718;2023-12-28T03:46:11;5.45;;;3.97;;
51459;SDS011;37534;39.772;2.718;2023-12-28T03:48:36;5.45;;;4.95;;
51459;SDS011;37534;39.772;2.718;2023-12-28T03:51:02;5.32;;;4.93;;
51459;SDS011;37534;39.772;2.718;2023-12-28T03:53:28;8.25;;;5.63;;
51459;SDS011;37534;39.772;2.718;2023-12-28T03:55:56;12.15;;;6.35;;
51459;SDS011;37534;39.772;2.718;2023-12-28T03:58:22;7.40;;;5.60;;
51459;SDS011;37534;39.772;2.718;2023-12-28T04:00:47;7.82;;;5.82;;
51459;SDS011;37534;39.772;2.718;2023-12-28T04:03:13;7.28;;;6.40;;
51459;SDS011;37534;39.772;2.718;2023-12-28T04:05:38;4.97;;;4.55;;
51459;SDS011;37534;39.772;2.718;2023-12-28T04:08:04;6.55;;;4.78;;
51459;SDS011;37534;39.772;2.718;2023-12-28T04:10:31;4.75;;;4.15;;
51459;SDS011;37534;39.772;2.718;2023-12-28T04:12:58;5.53;;;5.00;;
51459;SDS011;37534;39.772;2.718;2023-12-28T04:15:25;7.00;;;6.32;;
51459;SDS011;37534;39.772;2.718;2023-12-28T04:17:51;4.75;;;4.28;;
51459;SDS011;37534;39.772;2.718;2023-12-28T04:20:17;3.53;;;3.28;;
51459;SDS011;37534;39.772;2.718;2023-12-28T04:22:43;4.90;;;4.47;;
51459;SDS011;37534;39.772;2.718;2023-12-28T04:25:11;3.63;;;3.30;;
51459;SDS011;37534;39.772;2.718;2023-12-28T04:27:38;9.05;;;6.82;;
51459;SDS011;37534;39.772;2.718;2023-12-28T04:30:04;7.78;;;7.07;;
51459;SDS011;37534;39.772;2.718;2023-12-28T04:32:33;7.70;;;6.90;;
51459;SDS011;37534;39.772;2.718;2023-12-28T04:34:59;6.53;;;5.85;;
51459;SDS011;37534;39.772;2.718;2023-12-28T04:37:24;6.78;;;6.13;;
51459;SDS011;37534;39.772;2.718;2023-12-28T04:39:53;7.55;;;6.35;;
51459;SDS011;37534;39.772;2.718;2023-12-28T04:42:19;8.23;;;7.30;;
51459;SDS011;37534;39.772;2.718;2023-12-28T04:44:44;6.25;;;5.75;;
51459;SDS011;37534;39.772;2.718;2023-12-28T04:47:10;7.65;;;6.93;;
51459;SDS011;37534;39.772;2.718;2023-12-28T04:49:35;9.63;;;7.20;;
51459;SDS011;37534;39.772;2.718;2023-12-28T04:52:01;7.63;;;6.70;;
51459;SDS011;37534;39.772;2.718;2023-12-28T04:54:26;10.18;;;7.72;;
51459;SDS011;37534;39.772;2.718;2023-12-28T04:56:52;8.93;;;6.70;;
51459;SDS011;37534;39.772;2.718;2023-12-28T04:59:18;8.20;;;6.72;;
51459;SDS011;37534;39.772;2.718;2023-12-28T05:01:45;8.98;;;6.63;;
51459;SDS011;37534;39.772;2.718;2023-12-28T05:04:11;9.77;;;7.72;;
51459;SDS011;37534;39.772;2.718;2023-12-28T05:06:37;9.70;;;5.47;;
51459;SDS011;37534;39.772;2.718;2023-12-28T05:09:03;7.50;;;6.80;;
51459;SDS011;37534;39.772;2.718;2023-12-28T05:11:29;6.65;;;5.78;;
51459;SDS011;37534;39.772;2.718;2023-12-28T05:13:55;8.85;;;6.03;;
51459;SDS011;37534;39.772;2.718;2023-12-28T05:16:20;11.25;;;6.45;;
51459;SDS011;37534;39.772;2.718;2023-12-28T05:18:46;8.25;;;6.45;;
51459;SDS011;37534;39.772;2.718;2023-12-28T05:21:12;6.15;;;5.40;;
51459;SDS011;37534;39.772;2.718;2023-12-28T05:23:38;9.77;;;6.07;;
51459;SDS011;37534;39.772;2.718;2023-12-28T05:26:03;6.28;;;5.68;;
51459;SDS011;37534;39.772;2.718;2023-12-28T05:28:29;7.25;;;5.75;;
51459;SDS011;37534;39.772;2.718;2023-12-28T05:30:55;7.00;;;6.30;;
51459;SDS011;37534;39.772;2.718;2023-12-28T05:33:20;6.55;;;5.90;;
51459;SDS011;37534;39.772;2.718;2023-12-28T05:35:47;7.43;;;6.28;;
51459;SDS011;37534;39.772;2.718;2023-12-28T05:38:13;5.75;;;5.13;;
51459;SDS011;37534;39.772;2.718;2023-12-28T05:40:38;8.57;;;6.78;;
51459;SDS011;37534;39.772;2.718;2023-12-28T05:43:04;7.45;;;6.75;;
51459;SDS011;37534;39.772;2.718;2023-12-28T05:45:30;6.68;;;6.03;;
51459;SDS011;37534;39.772;2.718;2023-12-28T05:47:56;20.77;;;6.25;;
51459;SDS011;37534;39.772;2.718;2023-12-28T05:50:21;6.72;;;5.90;;
51459;SDS011;37534;39.772;2.718;2023-12-28T05:52:47;5.97;;;5.57;;
51459;SDS011;37534;39.772;2.718;2023-12-28T05:55:12;7.03;;;6.00;;
51459;SDS011;37534;39.772;2.718;2023-12-28T05:57:38;8.73;;;6.68;;
51459;SDS011;37534;39.772;2.718;2023-12-28T06:00:04;11.40;;;10.30;;
51459;SDS011;37534;39.772;2.718;2023-12-28T06:02:31;10.25;;;9.10;;
51459;SDS011;37534;39.772;2.718;2023-12-28T06:04:56;16.58;;;12.77;;
51459;SDS011;37534;39.772;2.718;2023-12-28T06:07:22;19.52;;;11.60;;
51459;SDS011;37534;39.772;2.718;2023-12-28T06:09:48;11.73;;;10.13;;
51459;SDS011;37534;39.772;2.718;2023-12-28T06:12:13;10.27;;;9.25;;
51459;SDS011;37534;39.772;2.718;2023-12-28T06:14:39;10.70;;;9.25;;
51459;SDS011;37534;39.772;2.718;2023-12-28T06:17:05;16.88;;;8.73;;
51459;SDS011;37534;39.772;2.718;2023-12-28T06:19:31;9.55;;;8.57;;
51459;SDS011;37534;39.772;2.718;2023-12-28T06:21:57;11.23;;;8.07;;
51459;SDS011;37534;39.772;2.718;2023-12-28T06:24:23;8.73;;;7.53;;
51459;SDS011;37534;39.772;2.718;2023-12-28T06:26:49;13.52;;;7.43;;
51459;SDS011;37534;39.772;2.718;2023-12-28T06:29:14;8.60;;;7.80;;
51459;SDS011;37534;39.772;2.718;2023-12-28T06:31:40;8.48;;;7.68;;
51459;SDS011;37534;39.772;2.718;2023-12-28T06:34:06;8.30;;;7.60;;
51459;SDS011;37534;39.772;2.718;2023-12-28T06:36:32;8.82;;;7.05;;
51459;SDS011;37534;39.772;2.718;2023-12-28T06:38:58;8.68;;;7.82;;
51459;SDS011;37534;39.772;2.718;2023-12-28T06:41:24;9.02;;;8.23;;
51459;SDS011;37534;39.772;2.718;2023-12-28T06:43:50;8.98;;;8.13;;
51459;SDS011;37534;39.772;2.718;2023-12-28T06:46:16;8.07;;;7.20;;
51459;SDS011;37534;39.772;2.718;2023-12-28T06:48:42;13.60;;;8.05;;
51459;SDS011;37534;39.772;2.718;2023-12-28T06:51:08;8.13;;;7.45;;
51459;SDS011;37534;39.772;2.718;2023-12-28T06:53:34;11.15;;;9.68;;
51459;SDS011;37534;39.772;2.718;2023-12-28T06:56:00;10.63;;;7.93;;
51459;SDS011;37534;39.772;2.718;2023-12-28T06:58:25;11.63;;;9.27;;
51459;SDS011;37534;39.772;2.718;2023-12-28T07:00:51;8.73;;;8.02;;
51459;SDS011;37534;39.772;2.718;2023-12-28T07:03:17;9.00;;;8.30;;
51459;SDS011;37534;39.772;2.718;2023-12-28T07:05:42;17.70;;;14.77;;
51459;SDS011;37534;39.772;2.718;2023-12-28T07:08:08;14.68;;;11.60;;
51459;SDS011;37534;39.772;2.718;2023-12-28T07:10:33;12.63;;;11.32;;
51459;SDS011;37534;39.772;2.718;2023-12-28T07:12:59;12.63;;;11.00;;
51459;SDS011;37534;39.772;2.718;2023-12-28T07:15:25;10.75;;;8.80;;
51459;SDS011;37534;39.772;2.718;2023-12-28T07:17:50;11.48;;;9.82;;
51459;SDS011;37534;39.772;2.718;2023-12-28T07:20:16;10.52;;;9.43;;
51459;SDS011;37534;39.772;2.718;2023-12-28T07:22:41;11.90;;;10.63;;
51459;SDS011;37534;39.772;2.718;2023-12-28T07:25:07;14.18;;;11.35;;
51459;SDS011;37534;39.772;2.718;2023-12-28T07:27:36;19.02;;;13.13;;
51459;SDS011;37534;39.772;2.718;2023-12-28T07:30:02;15.23;;;13.68;;
51459;SDS011;37534;39.772;2.718;2023-12-28T07:32:31;16.30;;;14.55;;
51459;SDS011;37534;39.772;2.718;2023-12-28T07:34:56;14.48;;;13.00;;
51459;SDS011;37534;39.772;2.718;2023-12-28T07:37:22;14.05;;;12.52;;
51459;SDS011;37534;39.772;2.718;2023-12-28T07:39:47;20.60;;;12.43;;
51459;SDS011;37534;39.772;2.718;2023-12-28T07:42:13;26.40;;;16.10;;
51459;SDS011;37534;39.772;2.718;2023-12-28T07:44:39;16.42;;;14.70;;
51459;SDS011;37534;39.772;2.718;2023-12-28T07:47:04;20.52;;;14.73;;
51459;SDS011;37534;39.772;2.718;2023-12-28T07:49:30;13.57;;;12.20;;
51459;SDS011;37534;39.772;2.718;2023-12-28T07:51:56;22.30;;;14.95;;
51459;SDS011;37534;39.772;2.718;2023-12-28T07:54:22;19.95;;;14.52;;
51459;SDS011;37534;39.772;2.718;2023-12-28T07:56:48;16.33;;;14.60;;
51459;SDS011;37534;39.772;2.718;2023-12-28T07:59:13;15.73;;;14.13;;
51459;SDS011;37534;39.772;2.718;2023-12-28T08:01:39;18.63;;;14.98;;
51459;SDS011;37534;39.772;2.718;2023-12-28T08:04:04;21.00;;;16.83;;
51459;SDS011;37534;39.772;2.718;2023-12-28T08:06:30;24.73;;;19.98;;
51459;SDS011;37534;39.772;2.718;2023-12-28T08:08:59;32.03;;;25.83;;
51459;SDS011;37534;39.772;2.718;2023-12-28T08:11:28;26.80;;;22.73;;
51459;SDS011;37534;39.772;2.718;2023-12-28T08:13:54;24.80;;;19.55;;
51459;SDS011;37534;39.772;2.718;2023-12-28T08:16:19;27.02;;;22.33;;
51459;SDS011;37534;39.772;2.718;2023-12-28T08:18:45;28.73;;;22.25;;
51459;SDS011;37534;39.772;2.718;2023-12-28T08:21:11;28.83;;;18.55;;
51459;SDS011;37534;39.772;2.718;2023-12-28T08:23:37;21.60;;;17.33;;
51459;SDS011;37534;39.772;2.718;2023-12-28T08:26:02;18.42;;;16.63;;
51459;SDS011;37534;39.772;2.718;2023-12-28T08:28:28;18.30;;;16.45;;
51459;SDS011;37534;39.772;2.718;2023-12-28T08:30:54;21.13;;;18.20;;
51459;SDS011;37534;39.772;2.718;2023-12-28T08:33:21;28.65;;;22.42;;
51459;SDS011;37534;39.772;2.718;2023-12-28T08:35:47;23.33;;;20.33;;
51459;SDS011;37534;39.772;2.718;2023-12-28T08:38:13;29.77;;;19.38;;
51459;SDS011;37534;39.772;2.718;2023-12-28T08:40:38;23.17;;;18.30;;
51459;SDS011;37534;39.772;2.718;2023-12-28T08:43:04;23.08;;;18.77;;
51459;SDS011;37534;39.772;2.718;2023-12-28T08:45:30;28.02;;;19.38;;
51459;SDS011;37534;39.772;2.718;2023-12-28T08:47:55;30.67;;;18.15;;
51459;SDS011;37534;39.772;2.718;2023-12-28T08:50:21;19.45;;;17.48;;
51459;SDS011;37534;39.772;2.718;2023-12-28T08:52:47;32.20;;;22.20;;
51459;SDS011;37534;39.772;2.718;2023-12-28T08:55:13;22.27;;;17.63;;
51459;SDS011;37534;39.772;2.718;2023-12-28T08:57:39;18.45;;;16.65;;
51459;SDS011;37534;39.772;2.718;2023-12-28T09:00:05;22.95;;;19.42;;
51459;SDS011;37534;39.772;2.718;2023-12-28T09:02:31;25.38;;;21.60;;
51459;SDS011;37534;39.772;2.718;2023-12-28T09:04:57;22.88;;;19.80;;
51459;SDS011;37534;39.772;2.718;2023-12-28T09:07:24;24.73;;;20.52;;
51459;SDS011;37534;39.772;2.718;2023-12-28T09:09:50;26.58;;;19.35;;
51459;SDS011;37534;39.772;2.718;2023-12-28T09:12:15;25.27;;;20.33;;
51459;SDS011;37534;39.772;2.718;2023-12-28T09:14:41;26.48;;;20.83;;
51459;SDS011;37534;39.772;2.718;2023-12-28T09:17:06;39.42;;;26.75;;
51459;SDS011;37534;39.772;2.718;2023-12-28T09:19:32;32.08;;;22.50;;
51459;SDS011;37534;39.772;2.718;2023-12-28T09:21:57;28.85;;;22.65;;
51459;SDS011;37534;39.772;2.718;2023-12-28T09:24:23;25.65;;;20.27;;
51459;SDS011;37534;39.772;2.718;2023-12-28T09:26:48;24.02;;;21.27;;
51459;SDS011;37534;39.772;2.718;2023-12-28T09:29:14;25.13;;;18.25;;
51459;SDS011;37534;39.772;2.718;2023-12-28T09:31:40;34.15;;;23.75;;
51459;SDS011;37534;39.772;2.718;2023-12-28T09:34:05;31.48;;;23.30;;
51459;SDS011;37534;39.772;2.718;2023-12-28T09:36:31;27.65;;;19.45;;
51459;SDS011;37534;39.772;2.718;2023-12-28T09:38:56;21.83;;;18.23;;
51459;SDS011;37534;39.772;2.718;2023-12-28T09:41:24;26.20;;;21.60;;
51459;SDS011;37534;39.772;2.718;2023-12-28T09:46:36;33.70;;;26.42;;
51459;SDS011;37534;39.772;2.718;2023-12-28T09:49:04;31.02;;;24.60;;
51459;SDS011;37534;39.772;2.718;2023-12-28T09:51:30;22.67;;;17.75;;
51459;SDS011;37534;39.772;2.718;2023-12-28T09:53:58;20.33;;;14.98;;
51459;SDS011;37534;39.772;2.718;2023-12-28T09:56:24;29.90;;;21.65;;
51459;SDS011;37534;39.772;2.718;2023-12-28T09:58:53;21.80;;;19.50;;
51459;SDS011;37534;39.772;2.718;2023-12-28T10:01:21;17.45;;;14.38;;
51459;SDS011;37534;39.772;2.718;2023-12-28T10:03:47;16.95;;;12.85;;
51459;SDS011;37534;39.772;2.718;2023-12-28T10:06:12;15.48;;;11.50;;
51459;SDS011;37534;39.772;2.718;2023-12-28T10:08:46;31.05;;;17.67;;
51459;SDS011;37534;39.772;2.718;2023-12-28T10:11:14;19.30;;;13.55;;
51459;SDS011;37534;39.772;2.718;2023-12-28T10:13:41;12.18;;;10.95;;
51459;SDS011;37534;39.772;2.718;2023-12-28T10:16:07;15.77;;;11.27;;
51459;SDS011;37534;39.772;2.718;2023-12-28T10:18:34;8.95;;;6.82;;
51459;SDS011;37534;39.772;2.718;2023-12-28T10:21:00;11.00;;;9.70;;
51459;SDS011;37534;39.772;2.718;2023-12-28T10:23:25;11.20;;;8.88;;
51459;SDS011;37534;39.772;2.718;2023-12-28T10:25:51;17.65;;;11.00;;
51459;SDS011;37534;39.772;2.718;2023-12-28T10:28:19;18.48;;;6.88;;
51459;SDS011;37534;39.772;2.718;2023-12-28T10:30:45;4.88;;;4.15;;
51459;SDS011;37534;39.772;2.718;2023-12-28T10:33:11;4.63;;;3.30;;
51459;SDS011;37534;39.772;2.718;2023-12-28T10:35:36;5.53;;;3.83;;
51459;SDS011;37534;39.772;2.718;2023-12-28T10:38:02;6.20;;;3.17;;
51459;SDS011;37534;39.772;2.718;2023-12-28T10:40:29;3.03;;;2.72;;
51459;SDS011;37534;39.772;2.718;2023-12-28T10:43:06;3.33;;;2.33;;
51459;SDS011;37534;39.772;2.718;2023-12-28T10:45:33;4.53;;;3.72;;
51459;SDS011;37534;39.772;2.718;2023-12-28T10:48:07;9.15;;;5.00;;
51459;SDS011;37534;39.772;2.718;2023-12-28T10:50:51;9.65;;;5.70;;
51459;SDS011;37534;39.772;2.718;2023-12-28T11:01:24;7.65;;;3.78;;
51459;SDS011;37534;39.772;2.718;2023-12-28T11:06:44;6.75;;;3.38;;
51459;SDS011;37534;39.772;2.718;2023-12-28T11:09:12;3.78;;;3.47;;
51459;SDS011;37534;39.772;2.718;2023-12-28T11:11:40;6.10;;;5.28;;
51459;SDS011;37534;39.772;2.718;2023-12-28T11:14:08;4.28;;;3.88;;
51459;SDS011;37534;39.772;2.718;2023-12-28T11:16:34;4.80;;;3.80;;
51459;SDS011;37534;39.772;2.718;2023-12-28T11:19:01;3.45;;;3.13;;
51459;SDS011;37534;39.772;2.718;2023-12-28T11:21:27;5.47;;;2.63;;
51459;SDS011;37534;39.772;2.718;2023-12-28T11:23:53;5.20;;;2.63;;
51459;SDS011;37534;39.772;2.718;2023-12-28T11:26:20;5.70;;;3.25;;
51459;SDS011;37534;39.772;2.718;2023-12-28T11:28:47;4.43;;;4.03;;
51459;SDS011;37534;39.772;2.718;2023-12-28T11:31:16;4.60;;;4.10;;
51459;SDS011;37534;39.772;2.718;2023-12-28T11:33:46;9.88;;;3.30;;
51459;SDS011;37534;39.772;2.718;2023-12-28T11:36:19;14.60;;;2.53;;
51459;SDS011;37534;39.772;2.718;2023-12-28T11:38:52;4.68;;;2.88;;
51459;SDS011;37534;39.772;2.718;2023-12-28T11:41:24;6.57;;;3.22;;
51459;SDS011;37534;39.772;2.718;2023-12-28T11:43:53;7.50;;;2.15;;
51459;SDS011;37534;39.772;2.718;2023-12-28T11:46:20;7.65;;;4.10;;
51459;SDS011;37534;39.772;2.718;2023-12-28T11:49:47;5.20;;;4.00;;
51459;SDS011;37534;39.772;2.718;2023-12-28T11:52:29;8.30;;;3.63;;
51459;SDS011;37534;39.772;2.718;2023-12-28T11:54:56;3.70;;;2.95;;
51459;SDS011;37534;39.772;2.718;2023-12-28T11:57:22;3.75;;;3.00;;
51459;SDS011;37534;39.772;2.718;2023-12-28T11:59:48;3.45;;;2.70;;
51459;SDS011;37534;39.772;2.718;2023-12-28T12:04:45;3.17;;;2.55;;
51459;SDS011;37534;39.772;2.718;2023-12-28T12:07:11;5.45;;;3.17;;
51459;SDS011;37534;39.772;2.718;2023-12-28T12:09:48;6.03;;;4.22;;
51459;SDS011;37534;39.772;2.718;2023-12-28T12:12:20;5.78;;;2.90;;
51459;SDS011;37534;39.772;2.718;2023-12-28T12:14:47;2.25;;;2.00;;
51459;SDS011;37534;39.772;2.718;2023-12-28T12:17:14;3.20;;;3.00;;
51459;SDS011;37534;39.772;2.718;2023-12-28T12:19:42;4.38;;;3.33;;
51459;SDS011;37534;39.772;2.718;2023-12-28T12:22:07;4.25;;;3.30;;
51459;SDS011;37534;39.772;2.718;2023-12-28T12:24:35;5.53;;;5.03;;
51459;SDS011;37534;39.772;2.718;2023-12-28T12:27:02;4.30;;;3.85;;
51459;SDS011;37534;39.772;2.718;2023-12-28T12:29:29;3.08;;;2.75;;
51459;SDS011;37534;39.772;2.718;2023-12-28T12:31:56;3.45;;;2.78;;
51459;SDS011;37534;39.772;2.718;2023-12-28T12:34:42;5.22;;;2.72;;
51459;SDS011;37534;39.772;2.718;2023-12-28T12:40:16;4.13;;;3.60;;
51459;SDS011;37534;39.772;2.718;2023-12-28T12:42:54;12.80;;;7.90;;
51459;SDS011;37534;39.772;2.718;2023-12-28T12:45:40;8.05;;;4.07;;
51459;SDS011;37534;39.772;2.718;2023-12-28T12:48:11;7.75;;;6.00;;
51459;SDS011;37534;39.772;2.718;2023-12-28T12:50:37;5.38;;;4.88;;
51459;SDS011;37534;39.772;2.718;2023-12-28T12:53:05;3.10;;;2.60;;
51459;SDS011;37534;39.772;2.718;2023-12-28T12:55:35;3.92;;;2.38;;
51459;SDS011;37534;39.772;2.718;2023-12-28T12:58:06;4.03;;;2.50;;
51459;SDS011;37534;39.772;2.718;2023-12-28T13:00:34;3.10;;;2.78;;
51459;SDS011;37534;39.772;2.718;2023-12-28T13:03:00;2.85;;;2.63;;
51459;SDS011;37534;39.772;2.718;2023-12-28T13:05:26;12.27;;;4.57;;
51459;SDS011;37534;39.772;2.718;2023-12-28T13:07:53;6.32;;;4.18;;
51459;SDS011;37534;39.772;2.718;2023-12-28T13:10:21;8.80;;;3.33;;
51459;SDS011;37534;39.772;2.718;2023-12-28T13:12:46;4.03;;;3.05;;
51459;SDS011;37534;39.772;2.718;2023-12-28T13:15:12;4.63;;;3.20;;
51459;SDS011;37534;39.772;2.718;2023-12-28T13:17:38;10.77;;;3.90;;
51459;SDS011;37534;39.772;2.718;2023-12-28T13:20:04;4.63;;;2.97;;
51459;SDS011;37534;39.772;2.718;2023-12-28T13:22:33;4.93;;;3.63;;
51459;SDS011;37534;39.772;2.718;2023-12-28T13:24:59;6.57;;;3.58;;
51459;SDS011;37534;39.772;2.718;2023-12-28T13:27:26;9.35;;;3.25;;
51459;SDS011;37534;39.772;2.718;2023-12-28T13:29:52;8.35;;;6.30;;
51459;SDS011;37534;39.772;2.718;2023-12-28T13:32:17;10.68;;;7.30;;
51459;SDS011;37534;39.772;2.718;2023-12-28T13:34:43;8.27;;;5.47;;
51459;SDS011;37534;39.772;2.718;2023-12-28T13:37:08;7.45;;;4.35;;
51459;SDS011;37534;39.772;2.718;2023-12-28T13:39:34;9.30;;;7.50;;
51459;SDS011;37534;39.772;2.718;2023-12-28T13:42:04;5.75;;;5.25;;
51459;SDS011;37534;39.772;2.718;2023-12-28T13:44:32;10.38;;;8.00;;
51459;SDS011;37534;39.772;2.718;2023-12-28T13:47:01;7.45;;;4.07;;
51459;SDS011;37534;39.772;2.718;2023-12-28T13:49:28;3.63;;;3.33;;
51459;SDS011;37534;39.772;2.718;2023-12-28T13:51:54;8.15;;;4.25;;
51459;SDS011;37534;39.772;2.718;2023-12-28T13:54:20;4.28;;;3.63;;
51459;SDS011;37534;39.772;2.718;2023-12-28T13:56:47;7.78;;;5.30;;
51459;SDS011;37534;39.772;2.718;2023-12-28T13:59:24;4.20;;;3.85;;
51459;SDS011;37534;39.772;2.718;2023-12-28T14:02:19;7.90;;;3.92;;
51459;SDS011;37534;39.772;2.718;2023-12-28T14:08:13;8.70;;;4.80;;
51459;SDS011;37534;39.772;2.718;2023-12-28T14:10:39;7.78;;;6.97;;
51459;SDS011;37534;39.772;2.718;2023-12-28T14:13:05;8.57;;;5.47;;
51459;SDS011;37534;39.772;2.718;2023-12-28T14:15:30;19.77;;;4.82;;
51459;SDS011;37534;39.772;2.718;2023-12-28T14:17:56;10.02;;;4.25;;
51459;SDS011;37534;39.772;2.718;2023-12-28T14:20:22;12.45;;;6.25;;
51459;SDS011;37534;39.772;2.718;2023-12-28T14:22:47;6.55;;;5.43;;
51459;SDS011;37534;39.772;2.718;2023-12-28T14:25:13;7.15;;;5.95;;
51459;SDS011;37534;39.772;2.718;2023-12-28T14:27:39;8.50;;;7.60;;
51459;SDS011;37534;39.772;2.718;2023-12-28T14:30:06;11.60;;;7.57;;
51459;SDS011;37534;39.772;2.718;2023-12-28T14:32:34;9.63;;;8.82;;
51459;SDS011;37534;39.772;2.718;2023-12-28T14:35:00;9.30;;;8.25;;
51459;SDS011;37534;39.772;2.718;2023-12-28T14:37:26;11.43;;;8.23;;
51459;SDS011;37534;39.772;2.718;2023-12-28T14:39:51;17.17;;;10.15;;
51459;SDS011;37534;39.772;2.718;2023-12-28T14:42:17;12.13;;;6.82;;
51459;SDS011;37534;39.772;2.718;2023-12-28T14:44:42;16.70;;;12.77;;
51459;SDS011;37534;39.772;2.718;2023-12-28T14:47:08;9.00;;;8.15;;
51459;SDS011;37534;39.772;2.718;2023-12-28T14:49:33;10.13;;;8.98;;
51459;SDS011;37534;39.772;2.718;2023-12-28T14:51:59;11.32;;;6.90;;
51459;SDS011;37534;39.772;2.718;2023-12-28T14:54:25;6.05;;;4.57;;
51459;SDS011;37534;39.772;2.718;2023-12-28T14:56:50;48.35;;;36.35;;